createdAt,value
2023-05-14T00:00:16.548Z,7.7
2023-05-14T00:02:43.241Z,8.7
2023-05-14T00:05:09.916Z,8.6
2023-05-14T00:07:36.606Z,9
2023-05-14T00:10:03.295Z,7.9
2023-05-14T00:12:29.973Z,7.3
2023-05-14T00:14:55.200Z,7.6
2023-05-14T00:17:21.876Z,6.6
2023-05-14T00:19:48.571Z,7.3
2023-05-14T00:22:15.248Z,6.3
2023-05-14T00:24:41.947Z,6.8
2023-05-14T00:27:08.625Z,7.1
2023-05-14T00:29:35.302Z,6.7
2023-05-14T00:32:01.986Z,6.8
2023-05-14T00:34:28.678Z,6.5
2023-05-14T00:36:55.362Z,7.1
2023-05-14T00:39:22.057Z,7.5
2023-05-14T00:41:48.728Z,7.3
2023-05-14T00:44:15.404Z,7.5
2023-05-14T00:46:40.621Z,7.7
2023-05-14T00:49:07.316Z,8.4
2023-05-14T00:51:34.032Z,7.6
2023-05-14T00:54:00.684Z,8
2023-05-14T00:56:27.382Z,8.1
2023-05-14T00:58:54.041Z,8.3
2023-05-14T01:01:20.744Z,9
2023-05-14T01:03:47.489Z,9.8
2023-05-14T01:06:14.119Z,9
2023-05-14T01:08:40.893Z,8.6
2023-05-14T01:11:07.537Z,8.7
2023-05-14T01:13:34.177Z,8
2023-05-14T01:16:00.850Z,8.1
2023-05-14T01:18:27.559Z,8.2
2023-05-14T01:20:52.763Z,9.1
2023-05-14T01:23:19.450Z,9.1
2023-05-14T01:25:46.127Z,9.1
2023-05-14T01:28:12.797Z,9
2023-05-14T01:30:39.485Z,8.7
2023-05-14T01:33:06.180Z,7.8
2023-05-14T01:35:32.868Z,8.4
2023-05-14T01:37:59.555Z,8.6
2023-05-14T01:40:26.233Z,9
2023-05-14T01:42:52.913Z,8.6
2023-05-14T01:45:19.596Z,9.3
2023-05-14T01:47:46.265Z,9.9
2023-05-14T01:50:12.971Z,8.1
2023-05-14T01:52:38.188Z,8.2
2023-05-14T01:55:04.926Z,8.1
2023-05-14T01:57:31.558Z,8.9
2023-05-14T01:59:58.246Z,7.9
2023-05-14T02:02:24.920Z,7.7
2023-05-14T02:04:51.622Z,7.7
2023-05-14T02:07:18.292Z,8.8
2023-05-14T02:09:44.985Z,8.7
2023-05-14T02:12:11.658Z,8.8
2023-05-14T02:14:38.385Z,8.8
2023-05-14T02:17:05.028Z,8.5
2023-05-14T02:19:31.717Z,9.8
2023-05-14T02:21:58.408Z,8.2
2023-05-14T02:24:23.628Z,8.5
2023-05-14T02:26:50.303Z,8
2023-05-14T02:29:16.982Z,7.9
2023-05-14T02:31:43.680Z,8.3
2023-05-14T02:34:10.366Z,8.8
2023-05-14T02:36:37.049Z,8.6
2023-05-14T02:39:03.775Z,9.2
2023-05-14T02:41:30.432Z,9.6
2023-05-14T02:43:57.115Z,9.3
2023-05-14T02:46:23.785Z,9.2
2023-05-14T02:48:50.477Z,9.6
2023-05-14T02:51:17.153Z,9.2
2023-05-14T02:53:43.845Z,9
2023-05-14T02:56:10.515Z,8.6
2023-05-14T02:58:35.746Z,8.7
2023-05-14T03:01:02.445Z,9.3
2023-05-14T03:03:29.118Z,8.5
2023-05-14T03:05:55.803Z,8.8
2023-05-14T03:08:22.492Z,9.5
2023-05-14T03:10:49.167Z,8.9
2023-05-14T03:13:15.850Z,9.5
2023-05-14T03:15:42.541Z,9.7
2023-05-14T03:18:09.227Z,9.7
2023-05-14T03:20:35.894Z,8.7
2023-05-14T03:23:02.631Z,9.4
2023-05-14T03:25:29.278Z,8.9
2023-05-14T03:27:55.955Z,8.9
2023-05-14T03:30:21.186Z,9.6
2023-05-14T03:32:47.870Z,8.9
2023-05-14T03:35:14.556Z,9.3
2023-05-14T03:37:41.240Z,9.1
2023-05-14T03:40:07.907Z,8.5
2023-05-14T03:42:34.609Z,9.2
2023-05-14T03:45:01.281Z,9.9
2023-05-14T03:47:27.968Z,8.7
2023-05-14T03:49:54.658Z,9.1
2023-05-14T03:52:21.341Z,9.7
2023-05-14T03:54:46.578Z,9.5
2023-05-14T03:57:13.251Z,10.4
2023-05-14T03:59:39.957Z,8.8
2023-05-14T04:02:06.626Z,9.3
2023-05-14T04:04:33.322Z,9.9
2023-05-14T04:07:00.007Z,10.5
2023-05-14T04:09:26.682Z,9.4
2023-05-14T04:11:53.378Z,10
2023-05-14T04:14:20.064Z,10.4
2023-05-14T04:16:46.742Z,9.8
2023-05-14T04:19:13.426Z,9.7
2023-05-14T04:21:40.116Z,10
2023-05-14T04:24:06.803Z,9.4
2023-05-14T04:26:32.024Z,10.2
2023-05-14T04:28:58.697Z,9.7
2023-05-14T04:31:25.378Z,9
2023-05-14T04:33:52.068Z,9.7
2023-05-14T04:36:18.751Z,10.3
2023-05-14T04:38:45.424Z,9.7
2023-05-14T04:41:12.108Z,9.9
2023-05-14T04:43:38.802Z,9.7
2023-05-14T04:46:05.479Z,8.9
2023-05-14T04:48:32.180Z,10.2
2023-05-14T04:50:58.861Z,9.8
2023-05-14T04:53:25.553Z,9.6
2023-05-14T04:55:52.286Z,9.6
2023-05-14T04:58:18.895Z,9.9
2023-05-14T05:00:45.598Z,10.4
2023-05-14T05:03:10.816Z,10.1
2023-05-14T05:05:37.506Z,10.1
2023-05-14T05:08:04.192Z,9.6
2023-05-14T05:10:30.895Z,10.1
2023-05-14T05:12:57.551Z,9.9
2023-05-14T05:15:24.240Z,9.8
2023-05-14T05:17:50.930Z,10.5
2023-05-14T05:20:17.596Z,9.1
2023-05-14T05:22:44.290Z,10.1
2023-05-14T05:25:10.978Z,9.4
2023-05-14T05:27:37.666Z,10
2023-05-14T05:30:04.369Z,9.7
2023-05-14T05:32:31.039Z,9.2
2023-05-14T05:34:56.286Z,9.4
2023-05-14T05:37:22.937Z,10.6
2023-05-14T05:39:49.617Z,8.5
2023-05-14T05:42:16.304Z,9
2023-05-14T05:44:43.003Z,8.5
2023-05-14T05:47:09.661Z,9.4
2023-05-14T05:49:36.366Z,9.7
2023-05-14T05:52:03.033Z,9.7
2023-05-14T05:54:29.730Z,9.3
2023-05-14T05:56:56.399Z,9.7
2023-05-14T05:59:23.102Z,9.9
2023-05-14T06:01:49.770Z,9.9
2023-05-14T06:04:16.468Z,9.3
2023-05-14T06:06:41.730Z,9.7
2023-05-14T06:09:08.362Z,9.5
2023-05-14T06:11:35.095Z,9.7
2023-05-14T06:14:01.749Z,10
2023-05-14T06:16:28.428Z,10.4
2023-05-14T06:18:55.112Z,9.2
2023-05-14T06:21:21.794Z,9.9
2023-05-14T06:23:48.478Z,9.6
2023-05-14T06:26:15.171Z,9.1
2023-05-14T06:28:41.843Z,9
2023-05-14T06:31:08.532Z,9.2
2023-05-14T06:33:35.224Z,10
2023-05-14T06:36:01.897Z,9.3
2023-05-14T06:38:27.137Z,9.5
2023-05-14T06:40:53.809Z,9.2
2023-05-14T06:43:20.477Z,9.4
2023-05-14T06:45:47.175Z,10.1
2023-05-14T06:48:13.855Z,9.7
2023-05-14T06:50:40.541Z,9.1
2023-05-14T06:53:07.241Z,9
2023-05-14T06:55:33.905Z,8.8
2023-05-14T06:58:00.649Z,8.9
2023-05-14T07:00:27.296Z,8.4
2023-05-14T07:02:53.976Z,8
2023-05-14T07:05:20.649Z,8.8
2023-05-14T07:07:47.341Z,8.8
2023-05-14T07:10:14.006Z,8.3
2023-05-14T07:12:40.707Z,8.3
2023-05-14T07:15:05.931Z,9.2
2023-05-14T07:17:32.616Z,8.8
2023-05-14T07:19:59.296Z,8.6
2023-05-14T07:22:25.974Z,8.8
2023-05-14T07:24:52.666Z,8.9
2023-05-14T07:27:19.354Z,8.4
2023-05-14T07:29:46.030Z,9.1
2023-05-14T07:32:12.722Z,8.9
2023-05-14T07:34:39.412Z,8.8
2023-05-14T07:37:06.094Z,8.9
2023-05-14T07:39:32.782Z,8.4
2023-05-14T07:41:59.465Z,8.6
2023-05-14T07:44:26.137Z,8.2
2023-05-14T07:46:51.371Z,9
2023-05-14T07:49:18.047Z,8.4
2023-05-14T07:51:44.727Z,7.9
2023-05-14T07:54:11.416Z,7.3
2023-05-14T07:56:38.107Z,8.1
2023-05-14T07:59:04.784Z,7.6
2023-05-14T08:01:31.501Z,7.8
2023-05-14T08:03:58.162Z,7.7
2023-05-14T08:06:24.841Z,8.4
2023-05-14T08:08:51.542Z,7.5
2023-05-14T08:11:18.203Z,8.1
2023-05-14T08:16:11.628Z,8
2023-05-14T08:18:36.789Z,7.5
2023-05-14T08:21:03.493Z,8.8
2023-05-14T08:23:30.172Z,7.9
2023-05-14T08:25:56.856Z,8.1
2023-05-14T08:28:23.540Z,7.9
2023-05-14T08:30:50.261Z,8.4
2023-05-14T08:33:16.950Z,8.2
2023-05-14T08:35:43.586Z,8.9
2023-05-14T08:38:10.303Z,8.7
2023-05-14T08:40:36.961Z,8.8
2023-05-14T08:43:03.665Z,8.8
2023-05-14T08:45:30.373Z,8.7
2023-05-14T08:47:57.035Z,8.5
2023-05-14T08:50:22.271Z,7.9
2023-05-14T08:52:48.922Z,8.4
2023-05-14T08:55:15.599Z,8.1
2023-05-14T08:57:42.315Z,7.4
2023-05-14T09:00:08.954Z,7.3
2023-05-14T09:02:35.645Z,7.8
2023-05-14T09:05:02.358Z,6.9
2023-05-14T09:07:29.030Z,7.6
2023-05-14T09:09:55.708Z,6.2
2023-05-14T09:12:22.381Z,6.3
2023-05-14T09:14:49.074Z,6.9
2023-05-14T09:17:15.746Z,7
2023-05-14T09:19:42.438Z,6.6
2023-05-14T09:22:07.663Z,6.7
2023-05-14T09:24:34.342Z,6.2
2023-05-14T09:27:01.029Z,6.1
2023-05-14T09:29:27.700Z,6.6
2023-05-14T09:31:54.423Z,6.3
2023-05-14T09:34:21.084Z,5.8
2023-05-14T09:36:47.758Z,5.6
2023-05-14T09:39:14.452Z,5.1
2023-05-14T09:41:41.137Z,6.4
2023-05-14T09:44:07.824Z,5.7
2023-05-14T09:46:34.581Z,5.9
2023-05-14T09:49:01.278Z,6.2
2023-05-14T09:51:27.884Z,5.1
2023-05-14T09:53:53.173Z,5.8
2023-05-14T09:56:19.768Z,7.3
2023-05-14T09:58:46.453Z,7.5
2023-05-14T10:01:13.166Z,7
2023-05-14T10:03:39.882Z,7.1
2023-05-14T10:06:06.547Z,7
2023-05-14T10:08:33.190Z,6.9
2023-05-14T10:10:59.877Z,7.2
2023-05-14T10:13:26.622Z,7.3
2023-05-14T10:15:53.254Z,6.8
2023-05-14T10:18:19.938Z,7.5
2023-05-14T10:20:46.681Z,7.5
2023-05-14T10:23:13.315Z,7.3
2023-05-14T10:25:38.530Z,6.7
2023-05-14T10:28:05.232Z,7.1
2023-05-14T10:30:31.893Z,6.8
2023-05-14T10:32:58.565Z,6.9
2023-05-14T10:35:25.269Z,6.5
2023-05-14T10:37:51.948Z,5.9
2023-05-14T10:40:18.743Z,5.4
2023-05-14T10:42:45.303Z,5.4
2023-05-14T10:45:11.985Z,5.8
2023-05-14T10:47:38.709Z,5.7
2023-05-14T10:50:05.384Z,5.8
2023-05-14T10:52:32.040Z,6.3
2023-05-14T10:54:58.801Z,5.6
2023-05-14T10:57:23.951Z,5.4
2023-05-14T10:59:50.646Z,5.2
2023-05-14T11:02:17.340Z,5.2
2023-05-14T11:04:43.995Z,4.7
2023-05-14T11:07:10.697Z,5.4
2023-05-14T11:09:37.365Z,5.5
2023-05-14T11:12:04.068Z,5
2023-05-14T11:14:30.754Z,4.7
2023-05-14T11:16:57.432Z,5.2
2023-05-14T11:19:24.134Z,4.4
2023-05-14T11:21:50.827Z,4.6
2023-05-14T11:24:17.475Z,4.6
2023-05-14T11:26:44.166Z,4.4
2023-05-14T11:29:10.870Z,4.8
2023-05-14T11:31:36.072Z,4.6
2023-05-14T11:34:02.763Z,4.5
2023-05-14T11:36:29.443Z,4.3
2023-05-14T11:38:56.133Z,5.5
2023-05-14T11:41:22.822Z,4.5
2023-05-14T11:43:49.500Z,4.7
2023-05-14T11:46:16.213Z,4.4
2023-05-14T11:48:42.868Z,5
2023-05-14T11:51:09.552Z,5
2023-05-14T11:56:02.929Z,4.7
2023-05-14T11:58:29.613Z,5.2
2023-05-14T12:00:56.287Z,4.9
2023-05-14T12:03:21.513Z,6
2023-05-14T12:05:46.741Z,5.6
2023-05-14T12:08:13.436Z,5.6
2023-05-14T12:10:40.114Z,5
2023-05-14T12:13:06.801Z,5
2023-05-14T12:15:33.490Z,4.9
2023-05-14T12:18:00.175Z,5.5
2023-05-14T12:20:26.874Z,5.1
2023-05-14T12:25:20.298Z,5.3
2023-05-14T12:27:46.915Z,5.5
2023-05-14T12:30:13.585Z,4.8
2023-05-14T12:32:40.280Z,5
2023-05-14T12:35:06.992Z,5
2023-05-14T12:37:32.181Z,4.5
2023-05-14T12:39:58.915Z,4.4
2023-05-14T12:42:25.544Z,4.6
2023-05-14T12:44:52.236Z,4.6
2023-05-14T12:47:18.977Z,4.8
2023-05-14T12:52:12.289Z,4.4
2023-05-14T12:54:38.964Z,4.4
2023-05-14T12:57:05.645Z,4.5
2023-05-14T12:59:32.338Z,3.8
2023-05-14T13:01:59.020Z,4.1
2023-05-14T13:04:25.717Z,4.2
2023-05-14T13:06:52.398Z,4.3
2023-05-14T13:09:17.605Z,3.5
2023-05-14T13:11:44.292Z,4.2
2023-05-14T13:14:10.984Z,3.5
2023-05-14T13:16:37.668Z,3.4
2023-05-14T13:19:04.359Z,3.3
2023-05-14T13:21:31.074Z,2.9
2023-05-14T13:23:57.717Z,3
2023-05-14T13:26:24.396Z,3
2023-05-14T13:28:51.087Z,3.1
2023-05-14T13:31:17.786Z,3.3
2023-05-14T13:33:44.492Z,3.3
2023-05-14T13:36:11.145Z,3.3
2023-05-14T13:38:37.826Z,3.3
2023-05-14T13:41:03.043Z,3.5
2023-05-14T13:43:29.739Z,3.3
2023-05-14T13:45:56.411Z,3.1
2023-05-14T13:48:23.236Z,3.2
2023-05-14T13:50:49.922Z,3.2
2023-05-14T13:53:16.476Z,3.4
2023-05-14T13:55:43.167Z,4.2
2023-05-14T13:58:09.971Z,3.1
2023-05-14T14:00:36.723Z,3.8
2023-05-14T14:03:03.217Z,3.2
2023-05-14T14:05:29.904Z,3.2
2023-05-14T14:07:56.632Z,3.7
2023-05-14T14:10:23.263Z,3
2023-05-14T14:12:48.498Z,3.6
2023-05-14T14:15:15.219Z,3.5
2023-05-14T14:17:41.969Z,3.3
2023-05-14T14:20:08.539Z,3.5
2023-05-14T14:22:35.286Z,3.5
2023-05-14T14:25:02.043Z,3.7
2023-05-14T14:27:28.723Z,4.4
2023-05-14T14:29:55.399Z,3.4
2023-05-14T14:32:21.974Z,3.9
2023-05-14T14:34:48.714Z,3.5
2023-05-14T14:37:15.445Z,3.5
2023-05-14T14:39:42.046Z,3.8
2023-05-14T14:42:08.744Z,3.3
2023-05-14T14:44:35.432Z,3.5
2023-05-14T14:47:00.608Z,3.4
2023-05-14T14:49:27.293Z,3.5
2023-05-14T14:51:54.004Z,4.1
2023-05-14T14:54:20.666Z,4.1
2023-05-14T14:56:47.358Z,4.3
2023-05-14T14:59:14.061Z,3.8
2023-05-14T15:01:40.728Z,3.7
2023-05-14T15:04:07.421Z,4.2
2023-05-14T15:06:34.216Z,3.2
2023-05-14T15:09:00.771Z,3.7
2023-05-14T15:11:27.533Z,3.6
2023-05-14T15:13:54.131Z,3.6
2023-05-14T15:16:20.901Z,3.7
2023-05-14T15:18:46.094Z,3.5
2023-05-14T15:21:12.760Z,4
2023-05-14T15:23:39.424Z,3.4
2023-05-14T15:26:06.091Z,3.5
2023-05-14T15:28:32.773Z,3.5
2023-05-14T15:30:59.478Z,3.9
2023-05-14T15:33:26.158Z,3.7
2023-05-14T15:35:52.851Z,3.6
2023-05-14T15:38:19.626Z,3.8
2023-05-14T15:40:46.232Z,4.4
2023-05-14T15:43:12.914Z,3.3
2023-05-14T15:45:39.585Z,3.6
2023-05-14T15:48:06.250Z,3.5
2023-05-14T15:50:31.529Z,4
2023-05-14T15:52:58.194Z,3.8
2023-05-14T15:55:24.868Z,3.1
2023-05-14T15:57:51.527Z,3.9
2023-05-14T16:00:18.196Z,3.6
2023-05-14T16:02:44.892Z,3.8
2023-05-14T16:05:11.590Z,3.6
2023-05-14T16:07:38.269Z,3.1
2023-05-14T16:10:04.946Z,3.7
2023-05-14T16:12:31.632Z,3.7
2023-05-14T16:14:58.306Z,3.7
2023-05-14T16:17:25.046Z,3.5
2023-05-14T16:19:51.676Z,3.8
2023-05-14T16:22:16.959Z,3.4
2023-05-14T16:24:43.677Z,3.3
2023-05-14T16:27:10.366Z,3.5
2023-05-14T16:29:36.958Z,3.5
2023-05-14T16:32:03.647Z,3.5
2023-05-14T16:34:30.367Z,3
2023-05-14T16:36:57.045Z,3
2023-05-14T16:39:23.713Z,3.3
2023-05-14T16:41:50.371Z,3.1
2023-05-14T16:44:17.065Z,2.8
2023-05-14T16:46:43.734Z,2.7
2023-05-14T16:49:10.497Z,2.9
2023-05-14T16:51:37.104Z,2.7
2023-05-14T16:54:02.327Z,2.9
2023-05-14T16:56:29.011Z,3.1
2023-05-14T16:58:55.709Z,3.2
2023-05-14T17:01:22.378Z,2.8
2023-05-14T17:03:49.060Z,3
2023-05-14T17:06:15.759Z,3.1
2023-05-14T17:08:42.433Z,2.8
2023-05-14T17:11:09.137Z,2.8
2023-05-14T17:13:35.815Z,3
2023-05-14T17:16:02.483Z,3.1
2023-05-14T17:18:29.264Z,2.3
2023-05-14T17:20:55.903Z,3.2
2023-05-14T17:23:22.544Z,2.6
2023-05-14T17:25:49.251Z,2.8
2023-05-14T17:28:14.450Z,2.8
2023-05-14T17:30:41.109Z,2.4
2023-05-14T17:33:07.836Z,2.6
2023-05-14T17:35:34.502Z,2.5
2023-05-14T17:38:01.174Z,2.8
2023-05-14T17:40:27.860Z,2.9
2023-05-14T17:42:54.541Z,3
2023-05-14T17:45:21.239Z,2.5
2023-05-14T17:47:47.902Z,2.5
2023-05-14T17:50:14.617Z,2.6
2023-05-14T17:52:41.280Z,2.8
2023-05-14T17:57:34.805Z,3.3
2023-05-14T17:59:59.918Z,3.4
2023-05-14T18:02:26.566Z,2.8
2023-05-14T18:04:53.246Z,3
2023-05-14T18:07:19.934Z,3.2
2023-05-14T18:09:46.617Z,3
2023-05-14T18:12:13.306Z,2.8
2023-05-14T18:14:39.988Z,2.5
2023-05-14T18:17:06.745Z,2.9
2023-05-14T18:19:33.350Z,2.9
2023-05-14T18:22:00.061Z,3
2023-05-14T18:24:26.734Z,2.8
2023-05-14T18:26:53.423Z,2.8
2023-05-14T18:29:20.094Z,2.8
2023-05-14T18:31:46.796Z,2.8
2023-05-14T18:34:11.997Z,3
2023-05-14T18:36:38.689Z,2.8
2023-05-14T18:39:05.357Z,3
2023-05-14T18:41:32.049Z,3
2023-05-14T18:43:58.738Z,2.6
2023-05-14T18:46:25.429Z,2.9
2023-05-14T18:48:52.116Z,2.8
2023-05-14T18:51:18.785Z,3.4
2023-05-14T18:53:45.493Z,3.8
2023-05-14T18:56:12.241Z,3.2
2023-05-14T18:58:38.839Z,3.1
2023-05-14T19:01:05.535Z,3.3
2023-05-14T19:03:32.212Z,3.5
2023-05-14T19:05:57.457Z,3.3
2023-05-14T19:08:24.151Z,3.3
2023-05-14T19:10:50.802Z,3.5
2023-05-14T19:13:17.505Z,4.7
2023-05-14T19:15:44.436Z,4
2023-05-14T19:18:11.122Z,3.7
2023-05-14T19:20:37.648Z,4.5
2023-05-14T19:23:04.337Z,3.9
2023-05-14T19:25:30.981Z,3.4
2023-05-14T19:27:57.836Z,3.6
2023-05-14T19:30:24.478Z,3.5
2023-05-14T19:32:51.147Z,3.5
2023-05-14T19:35:17.647Z,3.3
2023-05-14T19:37:44.455Z,3
2023-05-14T19:40:11.224Z,3.1
2023-05-14T19:42:36.413Z,3
2023-05-14T19:45:03.030Z,3.6
2023-05-14T19:47:29.716Z,3.7
2023-05-14T19:49:56.290Z,3.4
2023-05-14T19:52:22.965Z,3.9
2023-05-14T19:54:49.647Z,3.5
2023-05-14T19:57:16.483Z,3.2
2023-05-14T19:59:43.168Z,3.5
2023-05-14T20:02:09.894Z,3.4
2023-05-14T20:04:36.506Z,3.2
2023-05-14T20:07:03.271Z,3
2023-05-14T20:09:29.768Z,3.9
2023-05-14T20:11:56.445Z,3.7
2023-05-14T20:14:21.825Z,4
2023-05-14T20:16:48.526Z,4.1
2023-05-14T20:19:13.760Z,3.6
2023-05-14T20:21:40.469Z,3.6
2023-05-14T20:24:07.094Z,4
2023-05-14T20:26:33.783Z,3.3
2023-05-14T20:29:00.474Z,3.7
2023-05-14T20:31:27.160Z,3.6
2023-05-14T20:33:53.869Z,3.5
2023-05-14T20:36:20.587Z,3.6
2023-05-14T20:38:47.221Z,3.3
2023-05-14T20:41:13.927Z,3.9
2023-05-14T20:43:40.580Z,3.4
2023-05-14T20:46:07.310Z,3.4
2023-05-14T20:51:00.695Z,3.4
2023-05-14T20:53:27.340Z,3.4
2023-05-14T20:55:52.572Z,3.5
2023-05-14T20:58:19.250Z,3.7
2023-05-14T21:00:45.916Z,3.3
2023-05-14T21:03:12.663Z,3.9
2023-05-14T21:05:39.317Z,3.7
2023-05-14T21:08:06.006Z,4.7
2023-05-14T21:10:32.647Z,3.9
2023-05-14T21:12:59.343Z,3.7
2023-05-14T21:15:26.065Z,4.6
2023-05-14T21:17:52.703Z,4.3
2023-05-14T21:20:19.226Z,4
2023-05-14T21:22:46.112Z,4.3
2023-05-14T21:25:12.614Z,4.2
2023-05-14T21:27:38.036Z,5.1
2023-05-14T21:30:04.626Z,4.3
2023-05-14T21:32:31.476Z,4.3
2023-05-14T21:34:58.010Z,4.5
2023-05-14T21:37:24.746Z,4.5
2023-05-14T21:39:51.459Z,4.1
2023-05-14T21:42:18.168Z,4.3
2023-05-14T21:44:44.804Z,4.2
2023-05-14T21:47:10.803Z,4.1
2023-05-14T21:49:37.468Z,4.3
2023-05-14T21:52:04.151Z,4
2023-05-14T21:54:30.833Z,4.4
2023-05-14T21:56:57.567Z,4.2
2023-05-14T21:59:22.752Z,4.4
2023-05-14T22:01:49.454Z,4.6
2023-05-14T22:04:16.114Z,4.2
2023-05-14T22:06:42.807Z,5.1
2023-05-14T22:09:09.477Z,4.7
2023-05-14T22:11:36.184Z,5.2
2023-05-14T22:14:02.926Z,5.5
2023-05-14T22:16:29.576Z,4.2
2023-05-14T22:18:56.227Z,5.2
2023-05-14T22:21:22.907Z,4.8
2023-05-14T22:23:49.596Z,4.8
2023-05-14T22:26:16.313Z,4.7
2023-05-14T22:28:42.958Z,4.5
2023-05-14T22:31:08.169Z,4.8
2023-05-14T22:33:34.859Z,4.9
2023-05-14T22:36:01.540Z,5
2023-05-14T22:38:28.236Z,4.4
2023-05-14T22:40:54.937Z,4.5
2023-05-14T22:43:21.600Z,4.3
2023-05-14T22:45:48.349Z,4.8
2023-05-14T22:48:14.966Z,4.9
2023-05-14T22:50:41.659Z,4.5
2023-05-14T22:53:08.331Z,5.4
2023-05-14T22:55:35.104Z,4.9
2023-05-14T22:58:01.836Z,5.1
2023-05-14T23:00:28.380Z,5.8
2023-05-14T23:02:55.068Z,4.7
2023-05-14T23:05:20.328Z,5.3
2023-05-14T23:07:47.056Z,5.3
2023-05-14T23:10:13.659Z,4.9
2023-05-14T23:12:40.350Z,5.2
2023-05-14T23:15:07.062Z,5.1
2023-05-14T23:17:33.726Z,5.2
2023-05-14T23:20:00.434Z,5
2023-05-14T23:22:27.081Z,4.9
2023-05-14T23:24:53.759Z,4.8
2023-05-14T23:27:20.451Z,5.4
2023-05-14T23:29:47.126Z,5.4
2023-05-14T23:32:13.844Z,5.8
2023-05-14T23:34:40.522Z,5.1
2023-05-14T23:37:05.761Z,5.4
2023-05-14T23:39:32.414Z,5.1
2023-05-14T23:41:59.182Z,5.9
2023-05-14T23:44:25.771Z,5.7
2023-05-14T23:46:52.485Z,5.9
2023-05-14T23:49:19.143Z,6.5
2023-05-14T23:51:45.903Z,6
2023-05-14T23:54:12.510Z,5.7
2023-05-14T23:56:39.296Z,4.9
2023-05-14T23:59:05.889Z,6
